createdAt,value
2022-09-17T00:00:18.509Z,9.711707
2022-09-17T00:01:18.501Z,9.711599
2022-09-17T00:02:18.501Z,9.711617
2022-09-17T00:03:18.538Z,9.711623
2022-09-17T00:04:18.485Z,9.711260
2022-09-17T00:05:18.576Z,9.711121
2022-09-17T00:06:18.464Z,9.711384
2022-09-17T00:07:18.454Z,9.711407
2022-09-17T00:08:18.447Z,9.711385
2022-09-17T00:09:18.455Z,9.711452
2022-09-17T00:10:18.434Z,9.711452
2022-09-17T00:11:18.430Z,9.711434
2022-09-17T00:12:18.416Z,9.711521
2022-09-17T00:13:18.417Z,9.711436
2022-09-17T00:14:18.410Z,9.711477
2022-09-17T00:15:18.404Z,9.711364
2022-09-17T00:16:18.425Z,9.711566
2022-09-17T00:17:18.381Z,9.711544
2022-09-17T00:18:18.372Z,9.711508
2022-09-17T00:19:18.367Z,9.711429
2022-09-17T00:20:18.369Z,9.711479
2022-09-17T00:21:18.454Z,9.711621
2022-09-17T00:22:18.348Z,9.711595
2022-09-17T00:23:18.336Z,9.711659
2022-09-17T00:24:18.325Z,9.711722
2022-09-17T00:25:18.325Z,9.711643
2022-09-17T00:26:18.316Z,9.711649
2022-09-17T00:27:18.303Z,9.711628
2022-09-17T00:28:18.321Z,9.711670
2022-09-17T00:29:18.287Z,9.711475
2022-09-17T00:33:19.268Z,9.711564
2022-09-17T00:34:19.251Z,9.711474
2022-09-17T00:35:19.248Z,9.711332
2022-09-17T00:36:19.231Z,9.711275
2022-09-17T00:37:20.336Z,9.711541
2022-09-17T00:38:19.231Z,9.711179
2022-09-17T00:39:19.216Z,9.710902
2022-09-17T00:40:19.269Z,9.711200
2022-09-17T00:41:19.201Z,9.711485
2022-09-17T00:42:19.209Z,9.711486
2022-09-17T00:43:19.185Z,9.711451
2022-09-17T00:44:19.174Z,9.711574
2022-09-17T00:45:19.174Z,9.711482
2022-09-17T00:46:19.173Z,9.711397
2022-09-17T00:47:19.159Z,9.711643
2022-09-17T00:48:19.148Z,9.711571
2022-09-17T00:49:19.135Z,9.711409
2022-09-17T00:50:19.127Z,9.711443
2022-09-17T00:51:19.130Z,9.711498
2022-09-17T00:52:19.115Z,9.711508
2022-09-17T00:53:19.202Z,9.711521
2022-09-17T00:54:19.093Z,9.711617
2022-09-17T00:55:19.091Z,9.711539
2022-09-17T00:56:19.083Z,9.711481
2022-09-17T00:57:19.082Z,9.711483
2022-09-17T00:58:19.067Z,9.711407
2022-09-17T00:59:19.069Z,9.711694
2022-09-17T01:00:19.072Z,9.711651
2022-09-17T01:01:19.142Z,9.711874
2022-09-17T01:02:19.128Z,9.712043
2022-09-17T01:03:19.028Z,9.712003
2022-09-17T01:04:19.031Z,9.711974
2022-09-17T01:05:19.010Z,9.711824
2022-09-17T01:06:19.006Z,9.711941
2022-09-17T01:07:19.000Z,9.711905
2022-09-17T01:08:19.898Z,9.711742
2022-09-17T01:09:19.080Z,9.711702
2022-09-17T01:10:18.965Z,9.711827
2022-09-17T01:11:18.959Z,9.711606
2022-09-17T01:12:18.951Z,9.711608
2022-09-17T01:13:18.943Z,9.711560
2022-09-17T01:14:18.938Z,9.711596
2022-09-17T01:15:18.923Z,9.711568
2022-09-17T01:16:20.013Z,9.711583
2022-09-17T01:17:18.915Z,9.711607
2022-09-17T01:18:18.898Z,9.711622
2022-09-17T01:19:18.905Z,9.711652
2022-09-17T01:20:18.892Z,9.711657
2022-09-17T01:21:18.881Z,9.711652
2022-09-17T01:22:18.885Z,9.711608
2022-09-17T01:23:18.862Z,9.711629
2022-09-17T01:24:18.944Z,9.711613
2022-09-17T01:25:18.956Z,9.711652
2022-09-17T01:26:18.846Z,9.711658
2022-09-17T01:27:18.856Z,9.711650
2022-09-17T01:28:18.831Z,9.711651
2022-09-17T01:29:18.822Z,9.711666
2022-09-17T01:30:18.832Z,9.711639
2022-09-17T01:31:18.858Z,9.711664
2022-09-17T01:32:18.794Z,9.711649
2022-09-17T01:33:18.803Z,9.711671
2022-09-17T01:34:18.776Z,9.711663
2022-09-17T01:35:18.774Z,9.711645
2022-09-17T01:36:18.759Z,9.711669
2022-09-17T01:37:18.751Z,9.711654
2022-09-17T01:38:18.740Z,9.711618
2022-09-17T01:39:18.735Z,9.711648
2022-09-17T01:40:18.813Z,9.711666
2022-09-17T01:41:18.822Z,9.711688
2022-09-17T01:42:18.716Z,9.711702
2022-09-17T01:43:18.706Z,9.711729
2022-09-17T01:44:18.707Z,9.711724
2022-09-17T01:45:18.697Z,9.711690
2022-09-17T01:46:18.695Z,9.711666
2022-09-17T01:47:21.016Z,9.711657
2022-09-17T01:48:19.660Z,9.711667
2022-09-17T01:49:18.654Z,9.711650
2022-09-17T01:50:18.651Z,9.711631
2022-09-17T01:51:18.657Z,9.711636
2022-09-17T01:52:18.630Z,9.711643
2022-09-17T01:53:18.628Z,9.711679
2022-09-17T01:54:18.621Z,9.711657
2022-09-17T01:55:18.613Z,9.711700
2022-09-17T01:56:18.596Z,9.711715
2022-09-17T01:57:18.736Z,9.711690
2022-09-17T01:58:18.588Z,9.711689
2022-09-17T01:59:18.574Z,9.711670
2022-09-17T02:00:19.574Z,9.711702
2022-09-17T02:01:18.632Z,9.711719
2022-09-17T02:02:18.591Z,9.711678
2022-09-17T02:03:18.541Z,9.711658
2022-09-17T02:04:18.538Z,9.711646
2022-09-17T02:05:18.538Z,9.711637
2022-09-17T02:06:18.518Z,9.711650
2022-09-17T02:07:18.522Z,9.711704
2022-09-17T02:08:18.509Z,9.711663
2022-09-17T02:09:18.501Z,9.711648
2022-09-17T02:10:18.499Z,9.711671
2022-09-17T02:11:18.477Z,9.711659
2022-09-17T02:12:18.500Z,9.711674
2022-09-17T02:13:18.568Z,9.711733
2022-09-17T02:14:18.469Z,9.711694
2022-09-17T02:15:18.455Z,9.711665
2022-09-17T02:16:18.462Z,9.711588
2022-09-17T02:17:19.437Z,9.711653
2022-09-17T02:18:18.433Z,9.711723
2022-09-17T02:19:18.422Z,9.711706
2022-09-17T02:20:22.700Z,9.711534
2022-09-17T02:21:19.400Z,9.711637
2022-09-17T02:22:18.396Z,9.711689
2022-09-17T02:23:18.408Z,9.711682
2022-09-17T02:24:18.393Z,9.711684
2022-09-17T02:25:18.385Z,9.711801
2022-09-17T02:26:18.363Z,9.711781
2022-09-17T02:27:18.352Z,9.711734
2022-09-17T02:28:18.359Z,9.711765
2022-09-17T02:29:18.441Z,9.711787
2022-09-17T02:30:18.340Z,9.711983
2022-09-17T02:31:18.390Z,9.711887
2022-09-17T02:32:18.312Z,9.712028
2022-09-17T02:33:18.297Z,9.712122
2022-09-17T02:34:19.300Z,9.712101
2022-09-17T02:35:18.297Z,9.711954
2022-09-17T02:36:18.286Z,9.712069
2022-09-17T02:37:18.941Z,9.711711
2022-09-17T02:38:18.261Z,9.711697
2022-09-17T02:39:18.258Z,9.711388
2022-09-17T02:40:18.358Z,9.711605
2022-09-17T02:41:18.251Z,9.711771
2022-09-17T02:42:18.239Z,9.711954
2022-09-17T02:43:18.225Z,9.712088
2022-09-17T02:44:18.220Z,9.712119
2022-09-17T02:45:18.308Z,9.711927
2022-09-17T02:46:18.228Z,9.711989
2022-09-17T02:47:18.200Z,9.711726
2022-09-17T02:48:18.190Z,9.711653
2022-09-17T02:49:18.183Z,9.711703
2022-09-17T02:50:18.169Z,9.711923
2022-09-17T02:51:18.176Z,9.711600
2022-09-17T02:52:18.169Z,9.711681
2022-09-17T02:53:18.148Z,9.711593
2022-09-17T02:54:18.135Z,9.711850
2022-09-17T02:55:18.135Z,9.711809
2022-09-17T02:56:18.124Z,9.711951
2022-09-17T02:57:18.129Z,9.712023
2022-09-17T02:58:18.110Z,9.711865
2022-09-17T02:59:18.104Z,9.711958
2022-09-17T03:00:18.119Z,9.711924
2022-09-17T03:01:18.279Z,9.711827
2022-09-17T03:02:18.171Z,9.711772
2022-09-17T03:03:18.068Z,9.711770
2022-09-17T03:04:18.058Z,9.711552
2022-09-17T03:05:18.053Z,9.711957
2022-09-17T03:06:18.050Z,9.711903
2022-09-17T03:07:18.030Z,9.711915
2022-09-17T03:08:18.027Z,9.711748
2022-09-17T03:09:18.020Z,9.711440
2022-09-17T03:10:18.007Z,9.711320
2022-09-17T03:11:18.009Z,9.711205
2022-09-17T03:12:18.002Z,9.711248
2022-09-17T03:13:17.983Z,9.711011
2022-09-17T03:14:17.977Z,9.711173
2022-09-17T03:15:17.979Z,9.711417
2022-09-17T03:16:18.076Z,9.711513
2022-09-17T03:17:18.062Z,9.711726
2022-09-17T03:18:17.946Z,9.711686
2022-09-17T03:19:17.951Z,9.711658
2022-09-17T03:20:17.940Z,9.711692
2022-09-17T03:21:17.921Z,9.711126
2022-09-17T03:22:18.475Z,9.711022
2022-09-17T03:23:17.911Z,9.711272
2022-09-17T03:24:17.910Z,9.711555
2022-09-17T03:25:17.891Z,9.711699
2022-09-17T03:26:17.889Z,9.711448
2022-09-17T03:27:17.932Z,9.711309
2022-09-17T03:28:17.866Z,9.711313
2022-09-17T03:29:17.859Z,9.711670
2022-09-17T03:30:17.854Z,9.711717
2022-09-17T03:31:17.890Z,9.711632
2022-09-17T03:32:17.838Z,9.711517
2022-09-17T03:33:17.935Z,9.711622
2022-09-17T03:34:17.819Z,9.711743
2022-09-17T03:35:17.813Z,9.711766
2022-09-17T03:36:17.801Z,9.711671
2022-09-17T03:37:17.794Z,9.711581
2022-09-17T03:38:17.802Z,9.711628
2022-09-17T03:39:17.779Z,9.711592
2022-09-17T03:40:17.840Z,9.711624
2022-09-17T03:41:17.762Z,9.711400
2022-09-17T03:42:18.453Z,9.711373
2022-09-17T03:43:17.746Z,9.711191
2022-09-17T03:44:18.766Z,9.711073
2022-09-17T03:45:17.731Z,9.711167
2022-09-17T03:46:17.804Z,9.711417
2022-09-17T03:47:17.718Z,9.710913
2022-09-17T03:48:17.726Z,9.710880
2022-09-17T03:49:17.801Z,9.710988
2022-09-17T03:50:17.700Z,9.711401
2022-09-17T03:51:17.694Z,9.711542
2022-09-17T03:52:17.685Z,9.711667
2022-09-17T03:53:17.679Z,9.711356
2022-09-17T03:54:17.680Z,9.711495
2022-09-17T03:55:17.663Z,9.711454
2022-09-17T03:56:17.652Z,9.711367
2022-09-17T03:57:17.949Z,9.711567
2022-09-17T03:58:17.655Z,9.710994
2022-09-17T03:59:17.631Z,9.711188
2022-09-17T04:11:37.518Z,9.711686
2022-09-17T04:12:37.502Z,9.711675
2022-09-17T04:13:37.502Z,9.711685
2022-09-17T04:14:37.499Z,9.711699
2022-09-17T04:15:37.526Z,9.711689
2022-09-17T04:16:37.476Z,9.711692
2022-09-17T04:17:37.465Z,9.711720
2022-09-17T04:18:37.469Z,9.711768
2022-09-17T04:19:37.464Z,9.711724
2022-09-17T04:20:37.546Z,9.711709
2022-09-17T04:21:37.434Z,9.711728
2022-09-17T04:22:37.437Z,9.711668
2022-09-17T04:23:37.427Z,9.711674
2022-09-17T04:24:37.412Z,9.711669
2022-09-17T04:25:37.398Z,9.711671
2022-09-17T04:26:37.390Z,9.711667
2022-09-17T04:27:37.387Z,9.711674
2022-09-17T04:28:37.373Z,9.711738
2022-09-17T04:29:37.368Z,9.711714
2022-09-17T04:30:37.362Z,9.711720
2022-09-17T04:31:37.397Z,9.711701
2022-09-17T04:32:38.862Z,9.711654
2022-09-17T04:33:37.336Z,9.711659
2022-09-17T04:34:37.324Z,9.711649
2022-09-17T04:35:37.318Z,9.711655
2022-09-17T04:36:37.412Z,9.711601
2022-09-17T04:37:37.308Z,9.711617
2022-09-17T04:38:37.294Z,9.711616
2022-09-17T04:39:37.289Z,9.711596
2022-09-17T04:40:37.350Z,9.711566
2022-09-17T04:41:37.272Z,9.711568
2022-09-17T04:42:37.269Z,9.711614
2022-09-17T04:43:37.252Z,9.711621
2022-09-17T04:44:37.256Z,9.711587
2022-09-17T04:45:37.241Z,9.711600
2022-09-17T04:46:37.281Z,9.711596
2022-09-17T04:47:37.231Z,9.711554
2022-09-17T04:48:37.216Z,9.711564
2022-09-17T04:49:37.209Z,9.711596
2022-09-17T04:50:37.204Z,9.711599
2022-09-17T04:51:37.188Z,9.711595
2022-09-17T04:52:37.307Z,9.711596
2022-09-17T04:53:37.177Z,9.711566
2022-09-17T04:54:37.166Z,9.711574
2022-09-17T04:55:37.193Z,9.711627
2022-09-17T04:56:37.153Z,9.711541
2022-09-17T04:57:37.145Z,9.711605
2022-09-17T04:58:37.137Z,9.711640
2022-09-17T04:59:37.136Z,9.711555
2022-09-17T05:00:37.192Z,9.711642
2022-09-17T05:01:37.168Z,9.711587
2022-09-17T05:02:37.109Z,9.711486
2022-09-17T05:03:37.090Z,9.711428
2022-09-17T05:04:37.088Z,9.711589
2022-09-17T05:05:37.076Z,9.711452
2022-09-17T05:06:37.067Z,9.711621
2022-09-17T05:07:37.062Z,9.711723
2022-09-17T05:08:37.152Z,9.711475
2022-09-17T05:09:37.047Z,9.711511
2022-09-17T05:10:37.038Z,9.711665
2022-09-17T05:11:37.943Z,9.711506
2022-09-17T05:12:37.016Z,9.711582
2022-09-17T05:13:37.010Z,9.711604
2022-09-17T05:14:37.004Z,9.711664
2022-09-17T05:15:36.990Z,9.711716
2022-09-17T05:16:37.010Z,9.711651
2022-09-17T05:17:37.977Z,9.711825
2022-09-17T05:18:36.969Z,9.711559
2022-09-17T05:19:36.966Z,9.711599
2022-09-17T05:20:36.957Z,9.711556
2022-09-17T05:21:36.941Z,9.711610
2022-09-17T05:22:36.935Z,9.711576
2022-09-17T05:23:36.920Z,9.711658
2022-09-17T05:24:38.022Z,9.711641
2022-09-17T05:25:36.915Z,9.711694
2022-09-17T05:26:36.896Z,9.711649
2022-09-17T05:27:36.891Z,9.711638
2022-09-17T05:28:36.888Z,9.711608
2022-09-17T05:29:36.877Z,9.711586
2022-09-17T05:30:36.878Z,9.711601
2022-09-17T05:31:36.913Z,9.711632
2022-09-17T05:32:37.376Z,9.711679
2022-09-17T05:33:36.845Z,9.711716
2022-09-17T05:34:36.839Z,9.711692
2022-09-17T05:35:36.837Z,9.711657
2022-09-17T05:36:36.819Z,9.711600
2022-09-17T05:37:36.813Z,9.711671
2022-09-17T05:38:36.810Z,9.711711
2022-09-17T05:39:36.800Z,9.711726
2022-09-17T05:40:36.937Z,9.711679
2022-09-17T05:41:36.782Z,9.711640
2022-09-17T05:42:36.774Z,9.711703
2022-09-17T05:43:36.767Z,9.711720
2022-09-17T05:44:36.757Z,9.711694
2022-09-17T05:45:36.760Z,9.711671
2022-09-17T05:46:36.799Z,9.711682
2022-09-17T05:47:36.736Z,9.711697
2022-09-17T05:48:36.728Z,9.711683
2022-09-17T05:49:36.718Z,9.711682
2022-09-17T05:50:36.716Z,9.711689
2022-09-17T05:51:36.708Z,9.711712
2022-09-17T05:52:36.700Z,9.711698
2022-09-17T05:53:36.689Z,9.711702
2022-09-17T05:54:36.689Z,9.711678
2022-09-17T05:55:36.677Z,9.711679
2022-09-17T05:56:36.796Z,9.711705
2022-09-17T05:57:36.662Z,9.711712
2022-09-17T05:58:36.660Z,9.711651
2022-09-17T05:59:36.644Z,9.711659
2022-09-17T06:00:36.637Z,9.711663
2022-09-17T06:01:36.717Z,9.711651
2022-09-17T06:02:37.416Z,9.711604
2022-09-17T06:03:36.617Z,9.711576
2022-09-17T06:04:36.618Z,9.711588
2022-09-17T06:05:37.386Z,9.711663
2022-09-17T06:06:36.609Z,9.711683
2022-09-17T06:07:36.586Z,9.711641
2022-09-17T06:08:36.576Z,9.711657
2022-09-17T06:09:36.605Z,9.711601
2022-09-17T06:10:36.569Z,9.711550
2022-09-17T06:11:36.553Z,9.711584
2022-09-17T06:12:36.744Z,9.711695
2022-09-17T06:13:37.384Z,9.711755
2022-09-17T06:14:36.531Z,9.711739
2022-09-17T06:15:36.615Z,9.711908
2022-09-17T06:16:36.598Z,9.712048
2022-09-17T06:17:36.678Z,9.711924
2022-09-17T06:18:36.503Z,9.711961
2022-09-17T06:19:36.514Z,9.711902
2022-09-17T06:20:36.524Z,9.711878
2022-09-17T06:21:36.480Z,9.711774
2022-09-17T06:22:37.464Z,9.711755
2022-09-17T06:23:36.460Z,9.711718
2022-09-17T06:24:36.454Z,9.711800
2022-09-17T06:25:36.445Z,9.711491
2022-09-17T06:26:36.445Z,9.711476
2022-09-17T06:27:36.433Z,9.711590
2022-09-17T06:28:41.286Z,9.711813
2022-09-17T06:29:38.414Z,9.711853
2022-09-17T06:30:36.409Z,9.711717
2022-09-17T06:31:36.449Z,9.711669
2022-09-17T06:32:37.606Z,9.711608
2022-09-17T06:33:36.397Z,9.711510
2022-09-17T06:34:36.377Z,9.711467
2022-09-17T06:35:36.374Z,9.711717
2022-09-17T06:36:36.369Z,9.711709
2022-09-17T06:37:36.368Z,9.711690
2022-09-17T06:38:36.347Z,9.711658
2022-09-17T06:39:36.344Z,9.711642
2022-09-17T06:40:36.399Z,9.711596
2022-09-17T06:41:36.324Z,9.711581
2022-09-17T06:42:36.327Z,9.711549
2022-09-17T06:43:36.310Z,9.711578
2022-09-17T06:44:36.398Z,9.711606
2022-09-17T06:45:36.293Z,9.711662
2022-09-17T06:46:36.329Z,9.711660
2022-09-17T06:47:36.283Z,9.711608
2022-09-17T06:48:36.268Z,9.711571
2022-09-17T06:49:36.259Z,9.711571
2022-09-17T06:50:40.607Z,9.711685
2022-09-17T06:51:38.243Z,9.711626
2022-09-17T06:52:36.235Z,9.711636
2022-09-17T06:53:36.235Z,9.711550
2022-09-17T06:54:36.221Z,9.711620
2022-09-17T06:55:36.216Z,9.711624
2022-09-17T06:56:36.216Z,9.711584
2022-09-17T06:57:36.195Z,9.711638
2022-09-17T06:58:36.195Z,9.711650
2022-09-17T06:59:36.187Z,9.711645
2022-09-17T07:00:36.337Z,9.711567
2022-09-17T07:01:36.174Z,9.711628
2022-09-17T07:02:36.163Z,9.711644
2022-09-17T07:03:36.159Z,9.711640
2022-09-17T07:04:36.145Z,9.711687
2022-09-17T07:05:36.144Z,9.711612
2022-09-17T07:06:36.129Z,9.711624
2022-09-17T07:07:36.126Z,9.711734
2022-09-17T07:08:36.130Z,9.711750
2022-09-17T07:09:36.135Z,9.711651
2022-09-17T07:10:36.099Z,9.711554
2022-09-17T07:11:36.112Z,9.711587
2022-09-17T07:12:36.095Z,9.711526
2022-09-17T07:13:36.086Z,9.711657
2022-09-17T07:14:36.067Z,9.711660
2022-09-17T07:15:37.067Z,9.711605
2022-09-17T07:16:36.347Z,9.711613
2022-09-17T07:17:36.056Z,9.711584
2022-09-17T07:18:36.052Z,9.711555
2022-09-17T07:19:36.031Z,9.711481
2022-09-17T07:20:36.024Z,9.711481
2022-09-17T07:21:36.017Z,9.711477
2022-09-17T07:22:36.061Z,9.711477
2022-09-17T07:23:35.998Z,9.711504
2022-09-17T07:24:36.908Z,9.711547
2022-09-17T07:25:36.006Z,9.711498
2022-09-17T07:26:35.973Z,9.711569
2022-09-17T07:27:35.965Z,9.711547
2022-09-17T07:28:35.964Z,9.711672
2022-09-17T07:29:35.950Z,9.711665
2022-09-17T07:30:35.949Z,9.711693
2022-09-17T07:31:35.953Z,9.711654
2022-09-17T07:32:36.029Z,9.711535
2022-09-17T07:33:35.917Z,9.711509
2022-09-17T07:34:35.908Z,9.711462
2022-09-17T07:35:35.904Z,9.711469
2022-09-17T07:36:35.893Z,9.711449
2022-09-17T07:37:35.888Z,9.711488
2022-09-17T07:38:35.882Z,9.711375
2022-09-17T07:39:35.870Z,9.711494
2022-09-17T07:40:35.987Z,9.711534
2022-09-17T07:41:35.856Z,9.711518
2022-09-17T07:42:35.855Z,9.711567
2022-09-17T07:43:35.840Z,9.711553
2022-09-17T07:44:35.833Z,9.711514
2022-09-17T07:45:35.824Z,9.711522
2022-09-17T07:46:35.863Z,9.711584
2022-09-17T07:47:35.803Z,9.711519
2022-09-17T07:48:35.917Z,9.711518
2022-09-17T07:49:35.791Z,9.711538
2022-09-17T07:50:35.785Z,9.711595
2022-09-17T07:51:35.786Z,9.711553
2022-09-17T07:52:35.773Z,9.711501
2022-09-17T07:53:35.760Z,9.711544
2022-09-17T07:54:35.756Z,9.711557
2022-09-17T07:55:35.754Z,9.711603
2022-09-17T07:56:35.747Z,9.711608
2022-09-17T07:57:35.732Z,9.711593
2022-09-17T07:58:35.726Z,9.711625
2022-09-17T07:59:35.718Z,9.711677
2022-09-17T08:00:35.713Z,9.711639
2022-09-17T08:01:35.794Z,9.711634
2022-09-17T08:02:35.776Z,9.711665
2022-09-17T08:03:35.687Z,9.711654
2022-09-17T08:04:35.779Z,9.711537
2022-09-17T08:05:35.675Z,9.711610
2022-09-17T08:06:35.660Z,9.711635
2022-09-17T08:07:35.655Z,9.711575
2022-09-17T08:08:35.644Z,9.711596
2022-09-17T08:09:35.638Z,9.711613
2022-09-17T08:10:35.633Z,9.711544
2022-09-17T08:11:55.073Z,9.711587
2022-09-17T08:12:37.618Z,9.711650
2022-09-17T08:13:35.628Z,9.711647
2022-09-17T08:14:37.519Z,9.711678
2022-09-17T08:15:35.594Z,9.711791
2022-09-17T08:16:35.648Z,9.711712
2022-09-17T08:17:35.644Z,9.711593
2022-09-17T08:18:35.571Z,9.711529
2022-09-17T08:19:35.579Z,9.711581
2022-09-17T08:20:35.661Z,9.711593
2022-09-17T08:21:35.548Z,9.711729
2022-09-17T08:22:35.538Z,9.711726
2022-09-17T08:23:35.533Z,9.711664
2022-09-17T08:24:35.528Z,9.711737
2022-09-17T08:25:35.532Z,9.711756
2022-09-17T08:26:35.510Z,9.711802
2022-09-17T08:27:35.501Z,9.711799
2022-09-17T08:28:35.491Z,9.711807
2022-09-17T08:29:36.143Z,9.711676
2022-09-17T08:30:35.489Z,9.711674
2022-09-17T08:31:35.556Z,9.711693
2022-09-17T08:32:35.461Z,9.711822
2022-09-17T08:33:35.455Z,9.711931
2022-09-17T08:34:35.449Z,9.711977
2022-09-17T08:35:35.468Z,9.712004
2022-09-17T08:36:35.541Z,9.711753
2022-09-17T08:37:35.440Z,9.711576
2022-09-17T08:38:38.036Z,9.711718
2022-09-17T08:39:36.414Z,9.711999
2022-09-17T08:40:35.464Z,9.711948
2022-09-17T08:41:35.406Z,9.711773
2022-09-17T08:42:35.943Z,9.711768
2022-09-17T08:43:35.385Z,9.711794
2022-09-17T08:44:35.377Z,9.711837
2022-09-17T08:45:35.372Z,9.711660
2022-09-17T08:46:35.415Z,9.711648
2022-09-17T08:47:35.354Z,9.711672
2022-09-17T08:48:35.349Z,9.711738
2022-09-17T08:49:35.352Z,9.711634
2022-09-17T08:50:35.339Z,9.711719
2022-09-17T08:51:35.360Z,9.711679
2022-09-17T08:52:35.415Z,9.711423
2022-09-17T08:53:35.313Z,9.711662
2022-09-17T08:54:35.295Z,9.711803
2022-09-17T08:55:35.381Z,9.711636
2022-09-17T08:56:35.279Z,9.711732
2022-09-17T08:57:35.274Z,9.711731
2022-09-17T08:58:35.266Z,9.711762
2022-09-17T08:59:35.256Z,9.711624
2022-09-17T09:00:35.256Z,9.711625
2022-09-17T09:01:35.311Z,9.711565
2022-09-17T09:02:36.037Z,9.711664
2022-09-17T09:03:35.229Z,9.711745
2022-09-17T09:04:35.221Z,9.711706
2022-09-17T09:05:35.213Z,9.711668
2022-09-17T09:06:35.207Z,9.711728
2022-09-17T09:07:35.216Z,9.711713
2022-09-17T09:08:35.293Z,9.711740
2022-09-17T09:09:35.186Z,9.711764
2022-09-17T09:10:35.188Z,9.711757
2022-09-17T09:11:35.168Z,9.711736
2022-09-17T09:12:35.180Z,9.711784
2022-09-17T09:13:35.146Z,9.711797
2022-09-17T09:14:35.145Z,9.711738
2022-09-17T09:15:35.136Z,9.711732
2022-09-17T09:16:35.199Z,9.711731
2022-09-17T09:17:35.125Z,9.711698
2022-09-17T09:18:35.117Z,9.711702
2022-09-17T09:19:35.105Z,9.711715
2022-09-17T09:20:35.104Z,9.711751
2022-09-17T09:21:35.088Z,9.711700
2022-09-17T09:22:35.081Z,9.711707
2022-09-17T09:23:35.100Z,9.711742
2022-09-17T09:24:35.166Z,9.711732
2022-09-17T09:25:36.029Z,9.711759
2022-09-17T09:26:35.054Z,9.711782
2022-09-17T09:27:35.037Z,9.711635
2022-09-17T09:28:35.038Z,9.711606
2022-09-17T09:29:35.024Z,9.711679
2022-09-17T09:30:35.016Z,9.711639
2022-09-17T09:31:35.084Z,9.711635
2022-09-17T09:32:35.005Z,9.711729
2022-09-17T09:33:34.999Z,9.711720
2022-09-17T09:34:34.985Z,9.711921
2022-09-17T09:35:34.977Z,9.711897
2022-09-17T09:36:34.998Z,9.711814
2022-09-17T09:37:34.959Z,9.711743
2022-09-17T09:38:34.964Z,9.711704
2022-09-17T09:39:40.336Z,9.711784
2022-09-17T09:40:37.142Z,9.711834
2022-09-17T09:41:35.459Z,9.711930
2022-09-17T09:42:34.931Z,9.711769
2022-09-17T09:43:59.530Z,9.711791
2022-09-17T09:44:36.918Z,9.711894
2022-09-17T09:45:34.908Z,9.711768
2022-09-17T09:46:34.970Z,9.711755
2022-09-17T09:47:34.895Z,9.711761
2022-09-17T09:48:34.877Z,9.711889
2022-09-17T09:49:34.888Z,9.711797
2022-09-17T09:51:01.915Z,9.711600
2022-09-17T09:51:36.853Z,9.711802
2022-09-17T09:52:34.852Z,9.711751
2022-09-17T09:53:34.837Z,9.711733
2022-09-17T09:54:34.840Z,9.711697
2022-09-17T09:55:34.828Z,9.711666
2022-09-17T09:56:34.917Z,9.711705
2022-09-17T09:57:34.842Z,9.711720
2022-09-17T09:58:34.797Z,9.711779
2022-09-17T09:59:34.790Z,9.711730
2022-09-17T10:00:34.785Z,9.711618
2022-09-17T10:01:34.853Z,9.711648
2022-09-17T10:02:34.883Z,9.711596
2022-09-17T10:03:34.757Z,9.711559
2022-09-17T10:04:34.746Z,9.711601
2022-09-17T10:05:34.736Z,9.711629
2022-09-17T10:06:34.734Z,9.711641
2022-09-17T10:07:34.740Z,9.711620
2022-09-17T10:08:34.710Z,9.711674
2022-09-17T10:09:34.711Z,9.711673
2022-09-17T10:10:34.698Z,9.711550
2022-09-17T10:11:34.698Z,9.711631
2022-09-17T10:12:34.787Z,9.711679
2022-09-17T10:13:34.675Z,9.711713
2022-09-17T10:14:34.671Z,9.711617
2022-09-17T10:15:34.662Z,9.711613
2022-09-17T10:16:34.674Z,9.711557
2022-09-17T10:17:34.653Z,9.711661
2022-09-17T10:18:34.648Z,9.711525
2022-09-17T10:19:34.630Z,9.711574
2022-09-17T10:20:34.620Z,9.711777
2022-09-17T10:21:35.548Z,9.711835
2022-09-17T10:22:34.609Z,9.711638
2022-09-17T10:23:34.596Z,9.711862
2022-09-17T10:24:34.599Z,9.711802
2022-09-17T10:25:34.583Z,9.711638
2022-09-17T10:26:34.584Z,9.711911
2022-09-17T10:27:34.567Z,9.711842
2022-09-17T10:28:34.660Z,9.711731
2022-09-17T10:29:34.553Z,9.711919
2022-09-17T10:30:34.540Z,9.711907
2022-09-17T10:31:34.578Z,9.711966
2022-09-17T10:32:34.530Z,9.712049
2022-09-17T10:33:34.519Z,9.712074
2022-09-17T10:34:34.516Z,9.711930
2022-09-17T10:35:34.495Z,9.711976
2022-09-17T10:36:37.950Z,9.712040
2022-09-17T10:37:35.483Z,9.711941
2022-09-17T10:38:34.480Z,9.711765
2022-09-17T10:39:34.469Z,9.711729
2022-09-17T10:40:34.489Z,9.711757
2022-09-17T10:41:34.455Z,9.711812
2022-09-17T10:42:34.441Z,9.711921
2022-09-17T10:43:34.434Z,9.711905
2022-09-17T10:44:34.525Z,9.711836
2022-09-17T10:45:34.446Z,9.711958
2022-09-17T10:46:34.460Z,9.711910
2022-09-17T10:47:34.409Z,9.711748
2022-09-17T10:48:34.391Z,9.711782
2022-09-17T10:49:34.406Z,9.711820
2022-09-17T10:50:34.993Z,9.711791
2022-09-17T10:51:34.376Z,9.711798
2022-09-17T10:52:35.496Z,9.711822
2022-09-17T10:53:34.354Z,9.711785
2022-09-17T10:54:34.348Z,9.711636
2022-09-17T10:55:34.347Z,9.711637
2022-09-17T10:56:34.347Z,9.711646
2022-09-17T10:57:34.328Z,9.711640
2022-09-17T10:58:37.159Z,9.711782
2022-09-17T10:59:35.307Z,9.711755
2022-09-17T11:00:34.331Z,9.711712
2022-09-17T11:01:34.404Z,9.711733
2022-09-17T11:02:35.350Z,9.711829
2022-09-17T11:03:34.276Z,9.711877
2022-09-17T11:04:34.265Z,9.711844
2022-09-17T11:05:34.286Z,9.711821
2022-09-17T11:06:34.248Z,9.711823
2022-09-17T11:07:34.253Z,9.711796
2022-09-17T11:08:34.243Z,9.712044
2022-09-17T11:09:34.239Z,9.712029
2022-09-17T11:10:34.228Z,9.711983
2022-09-17T11:11:34.206Z,9.712145
2022-09-17T11:12:34.203Z,9.712089
2022-09-17T11:13:34.192Z,9.712070
2022-09-17T11:14:34.191Z,9.712065
2022-09-17T11:15:34.172Z,9.711969
2022-09-17T11:16:34.350Z,9.712107
2022-09-17T11:17:34.161Z,9.712361
2022-09-17T11:18:34.151Z,9.712073
2022-09-17T11:19:34.159Z,9.712112
2022-09-17T11:20:34.135Z,9.711938
2022-09-17T11:21:34.132Z,9.711887
2022-09-17T11:22:34.120Z,9.711834
2022-09-17T11:23:34.139Z,9.711963
2022-09-17T11:24:34.119Z,9.712037
2022-09-17T11:25:34.098Z,9.711953
2022-09-17T11:26:34.094Z,9.712009
2022-09-17T11:27:34.084Z,9.712037
2022-09-17T11:28:34.073Z,9.711922
2022-09-17T11:29:34.995Z,9.711894
2022-09-17T11:30:34.058Z,9.711790
2022-09-17T11:31:34.155Z,9.711711
2022-09-17T11:32:34.144Z,9.711778
2022-09-17T11:33:34.036Z,9.711890
2022-09-17T11:34:34.021Z,9.711925
2022-09-17T11:35:34.022Z,9.711838
2022-09-17T11:36:34.016Z,9.711759
2022-09-17T11:37:34.010Z,9.711905
2022-09-17T11:38:33.993Z,9.711838
2022-09-17T11:39:33.984Z,9.711797
2022-09-17T11:40:34.027Z,9.711764
2022-09-17T11:41:33.967Z,9.711861
2022-09-17T11:42:33.967Z,9.711917
2022-09-17T11:43:33.955Z,9.711984
2022-09-17T11:44:33.941Z,9.711979
2022-09-17T11:45:33.954Z,9.711797
2022-09-17T11:46:33.985Z,9.711878
2022-09-17T11:47:33.920Z,9.711891
2022-09-17T11:48:34.009Z,9.711860
2022-09-17T11:49:33.912Z,9.711828
2022-09-17T11:50:33.895Z,9.711830
2022-09-17T11:51:33.899Z,9.711839
2022-09-17T11:52:33.882Z,9.711770
2022-09-17T11:53:33.876Z,9.711670
2022-09-17T11:54:33.873Z,9.711846
2022-09-17T11:55:33.861Z,9.711786
2022-09-17T11:56:33.847Z,9.711841
2022-09-17T11:57:33.868Z,9.711785
2022-09-17T11:58:33.832Z,9.711676